createdAt,value
2019-03-02T00:00:52.455Z,99.99
2019-03-02T00:01:52.408Z,99.99
2019-03-02T00:02:52.367Z,99.99
2019-03-02T00:03:52.312Z,99.99
2019-03-02T00:04:52.262Z,99.99
2019-03-02T00:05:52.215Z,99.99
2019-03-02T00:06:52.170Z,99.99
2019-03-02T00:07:52.117Z,99.99
2019-03-02T00:08:52.069Z,99.99
2019-03-02T00:09:52.019Z,99.99
2019-03-02T00:10:51.978Z,99.99
2019-03-02T00:11:52.948Z,99.99
2019-03-02T00:12:51.881Z,99.99
2019-03-02T00:13:51.830Z,99.99
2019-03-02T00:14:54.054Z,99.99
2019-03-02T00:15:51.731Z,99.99
2019-03-02T00:16:51.683Z,99.99
2019-03-02T00:17:54.171Z,99.99
2019-03-02T00:18:51.588Z,99.99
2019-03-02T00:19:51.539Z,99.99
2019-03-02T00:20:55.437Z,99.99
2019-03-02T00:21:51.450Z,99.99
2019-03-02T00:22:51.390Z,99.99
2019-03-02T00:23:54.262Z,99.99
2019-03-02T00:24:54.055Z,99.99
2019-03-02T00:25:51.250Z,99.99
2019-03-02T00:26:51.204Z,99.99
2019-03-02T00:27:54.108Z,99.99
2019-03-02T00:28:51.103Z,99.99
2019-03-02T00:29:51.055Z,99.99
2019-03-02T00:30:51.020Z,99.99
2019-03-02T00:31:50.962Z,99.99
2019-03-02T00:32:50.913Z,99.99
2019-03-02T00:33:53.792Z,99.99
2019-03-02T00:34:50.811Z,99.99
2019-03-02T00:35:50.768Z,99.99
2019-03-02T00:36:50.999Z,99.99
2019-03-02T00:37:50.668Z,99.99
2019-03-02T00:38:50.617Z,99.99
2019-03-02T00:39:54.344Z,99.99
2019-03-02T00:40:50.524Z,99.99
2019-03-02T00:41:50.476Z,99.99
2019-03-02T00:42:51.938Z,99.99
2019-03-02T00:43:50.379Z,99.99
2019-03-02T00:44:50.335Z,99.99
2019-03-02T00:45:50.283Z,99.99
2019-03-02T00:46:50.232Z,99.99
2019-03-02T00:47:50.183Z,99.99
2019-03-02T00:48:50.145Z,99.99
2019-03-02T00:49:50.092Z,99.99
2019-03-02T00:50:50.038Z,99.99
2019-03-02T00:51:49.993Z,99.99
2019-03-02T00:52:49.947Z,99.99
2019-03-02T00:53:49.892Z,99.99
2019-03-02T00:54:57.778Z,99.99
2019-03-02T00:55:49.799Z,99.99
2019-03-02T00:56:49.756Z,99.99
2019-03-02T00:57:50.714Z,99.99
2019-03-02T00:58:49.659Z,99.99
2019-03-02T00:59:49.602Z,99.99
2019-03-02T01:00:50.040Z,99.99
2019-03-02T01:01:49.507Z,99.99
2019-03-02T01:02:49.465Z,99.99
2019-03-02T01:03:50.638Z,99.99
2019-03-02T01:04:49.361Z,99.99
2019-03-02T01:05:49.318Z,99.99
2019-03-02T01:06:50.054Z,99.99
2019-03-02T01:07:49.218Z,99.99
2019-03-02T01:08:49.170Z,99.99
2019-03-02T01:09:49.127Z,99.99
2019-03-02T01:10:49.094Z,99.99
2019-03-02T01:11:49.024Z,99.99
2019-03-02T01:12:48.979Z,99.99
2019-03-02T01:13:48.930Z,99.99
2019-03-02T01:14:48.878Z,99.99
2019-03-02T01:15:48.831Z,99.99
2019-03-02T01:16:51.642Z,99.99
2019-03-02T01:17:48.735Z,99.99
2019-03-02T01:18:48.685Z,99.99
2019-03-02T01:19:49.057Z,99.99
2019-03-02T01:20:48.590Z,99.99
2019-03-02T01:21:48.541Z,99.99
2019-03-02T01:22:51.762Z,99.99
2019-03-02T01:23:48.443Z,99.99
2019-03-02T01:24:48.399Z,99.99
2019-03-02T01:25:48.885Z,99.99
2019-03-02T01:26:48.299Z,99.99
2019-03-02T01:27:48.251Z,99.99
2019-03-02T01:28:48.204Z,99.99
2019-03-02T01:29:48.156Z,99.99
2019-03-02T01:30:48.108Z,99.99
2019-03-02T01:31:48.055Z,99.99
2019-03-02T01:32:48.805Z,99.99
2019-03-02T01:33:47.963Z,99.99
2019-03-02T01:34:47.917Z,99.99
2019-03-02T01:35:47.866Z,99.99
2019-03-02T01:36:47.814Z,99.99
2019-03-02T01:37:47.766Z,99.99
2019-03-02T01:38:50.601Z,99.99
2019-03-02T01:39:47.671Z,99.99
2019-03-02T01:40:47.624Z,99.99
2019-03-02T01:41:50.915Z,99.99
2019-03-02T01:42:47.526Z,99.99
2019-03-02T01:43:47.476Z,99.99
2019-03-02T01:44:48.740Z,99.99
2019-03-02T01:45:47.384Z,99.99
2019-03-02T01:46:47.331Z,99.99
2019-03-02T01:47:51.272Z,99.99
2019-03-02T01:48:47.236Z,99.99
2019-03-02T01:49:47.188Z,99.99
2019-03-02T01:50:47.696Z,99.99
2019-03-02T01:51:47.090Z,99.99
2019-03-02T01:52:47.044Z,99.99
2019-03-02T01:53:46.992Z,99.99
2019-03-02T01:54:46.953Z,99.99
2019-03-02T01:55:46.903Z,99.99
2019-03-02T01:56:46.851Z,99.99
2019-03-02T01:57:48.871Z,99.99
2019-03-02T01:58:46.775Z,99.99
2019-03-02T01:59:46.702Z,99.99
2019-03-02T02:00:49.161Z,99.99
2019-03-02T02:01:46.609Z,99.99
2019-03-02T02:02:46.557Z,99.99
2019-03-02T02:03:47.023Z,99.99
2019-03-02T02:04:46.462Z,99.99
2019-03-02T02:05:46.418Z,99.99
2019-03-02T02:06:46.362Z,99.99
2019-03-02T02:07:46.314Z,99.99
2019-03-02T02:08:46.271Z,99.99
2019-03-02T02:09:46.226Z,99.99
2019-03-02T02:10:46.171Z,99.99
2019-03-02T02:11:46.121Z,99.99
2019-03-02T02:12:46.072Z,99.99
2019-03-02T02:13:46.027Z,99.99
2019-03-02T02:14:45.977Z,99.99
2019-03-02T02:15:45.928Z,99.99
2019-03-02T02:16:45.882Z,99.99
2019-03-02T02:17:45.835Z,99.99
2019-03-02T02:18:45.785Z,99.99
2019-03-02T02:19:45.741Z,99.99
2019-03-02T02:20:46.930Z,99.99
2019-03-02T02:21:45.645Z,99.99
2019-03-02T02:22:45.592Z,99.99
2019-03-02T02:23:45.806Z,99.99
2019-03-02T02:24:45.499Z,99.99
2019-03-02T02:25:45.448Z,99.99
2019-03-02T02:26:46.872Z,99.99
2019-03-02T02:27:45.348Z,99.99
2019-03-02T02:28:45.313Z,99.99
2019-03-02T02:29:45.254Z,99.99
2019-03-02T02:30:45.203Z,99.99
2019-03-02T02:31:46.474Z,99.99
2019-03-02T02:32:45.108Z,99.99
2019-03-02T02:33:45.056Z,99.99
2019-03-02T02:34:45.009Z,99.99
2019-03-02T02:35:44.960Z,99.99
2019-03-02T02:36:44.914Z,99.99
2019-03-02T02:37:44.870Z,99.99
2019-03-02T02:38:44.819Z,99.99
2019-03-02T02:39:44.769Z,99.99
2019-03-02T02:40:44.720Z,99.99
2019-03-02T02:41:44.668Z,99.99
2019-03-02T02:42:45.057Z,99.99
2019-03-02T02:43:44.578Z,99.99
2019-03-02T02:44:44.540Z,99.99
2019-03-02T02:45:48.998Z,99.99
2019-03-02T02:46:44.436Z,99.99
2019-03-02T02:47:50.342Z,99.99
2019-03-02T02:48:44.336Z,99.99
2019-03-02T02:49:49.025Z,99.99
2019-03-02T02:50:44.234Z,99.99
2019-03-02T02:51:49.309Z,99.99
2019-03-02T02:52:44.384Z,99.99
2019-03-02T02:53:45.240Z,99.99
2019-03-02T02:54:44.387Z,99.99
2019-03-02T02:55:44.231Z,99.99
2019-03-02T02:56:44.141Z,99.99
2019-03-02T02:57:44.133Z,99.99
2019-03-02T02:58:44.058Z,99.99
2019-03-02T02:59:43.908Z,99.99
2019-03-02T03:00:43.982Z,99.99
2019-03-02T03:01:43.872Z,99.99
2019-03-02T03:02:43.802Z,99.99
2019-03-02T03:03:43.776Z,99.99
2019-03-02T03:04:43.659Z,99.99
2019-03-02T03:05:43.736Z,99.99
2019-03-02T03:06:43.463Z,99.99
2019-03-02T03:07:52.139Z,99.99
2019-03-02T03:08:43.387Z,99.99
2019-03-02T03:09:45.284Z,99.99
2019-03-02T03:10:43.269Z,99.99
2019-03-02T03:11:44.521Z,99.99
2019-03-02T03:12:43.173Z,99.99
2019-03-02T03:13:43.123Z,99.99
2019-03-02T03:14:43.081Z,99.99
2019-03-02T03:15:43.026Z,99.99
2019-03-02T03:16:42.979Z,99.99
2019-03-02T03:17:42.931Z,99.99
2019-03-02T03:18:47.230Z,99.99
2019-03-02T03:19:42.833Z,99.99
2019-03-02T03:20:47.898Z,99.99
2019-03-02T03:21:42.736Z,99.99
2019-03-02T03:22:46.082Z,99.99
2019-03-02T03:23:42.640Z,99.99
2019-03-02T03:24:42.609Z,99.99
2019-03-02T03:25:42.543Z,99.99
2019-03-02T03:26:42.496Z,99.99
2019-03-02T03:27:47.637Z,99.99
2019-03-02T03:28:42.399Z,99.99
2019-03-02T03:29:44.539Z,99.99
2019-03-02T03:30:42.298Z,99.99
2019-03-02T03:31:42.264Z,99.99
2019-03-02T03:32:54.722Z,99.99
2019-03-02T03:33:46.533Z,99.99
2019-03-02T03:34:42.110Z,99.99
2019-03-02T03:35:42.061Z,99.99
2019-03-02T03:36:42.011Z,99.99
2019-03-02T03:37:41.969Z,99.99
2019-03-02T03:38:41.915Z,99.99
2019-03-02T03:39:46.376Z,99.99
2019-03-02T03:40:41.820Z,99.99
2019-03-02T03:41:43.489Z,99.99
2019-03-02T03:42:41.719Z,99.99
2019-03-02T03:43:44.046Z,99.99
2019-03-02T03:44:41.627Z,99.99
2019-03-02T03:45:43.413Z,99.99
2019-03-02T03:46:41.529Z,99.99
2019-03-02T03:47:41.490Z,99.99
2019-03-02T03:48:41.434Z,99.99
2019-03-02T03:49:41.386Z,99.99
2019-03-02T03:50:41.335Z,99.99
2019-03-02T03:51:41.288Z,99.99
2019-03-02T03:52:43.991Z,99.99
2019-03-02T03:53:41.199Z,99.99
2019-03-02T03:54:45.301Z,99.99
2019-03-02T03:55:41.096Z,99.99
2019-03-02T03:56:42.478Z,99.99
2019-03-02T03:57:40.997Z,99.99
2019-03-02T03:58:41.527Z,99.99
2019-03-02T03:59:40.906Z,99.99
2019-03-02T04:00:40.850Z,99.99
2019-03-02T04:01:40.814Z,99.99
2019-03-02T04:02:40.760Z,99.99
2019-03-02T04:03:40.727Z,99.99
2019-03-02T04:04:40.657Z,99.99
2019-03-02T04:05:42.241Z,99.99
2019-03-02T04:06:40.563Z,99.99
2019-03-02T04:07:48.873Z,99.99
2019-03-02T04:08:40.463Z,99.99
2019-03-02T04:09:42.814Z,99.99
2019-03-02T04:10:40.377Z,99.99
2019-03-02T04:11:42.045Z,99.99
2019-03-02T04:12:40.271Z,99.99
2019-03-02T04:13:44.962Z,99.99
2019-03-02T04:14:40.175Z,99.99
2019-03-02T04:15:41.586Z,99.99
2019-03-02T04:16:40.089Z,99.99
2019-03-02T04:17:40.817Z,99.99
2019-03-02T04:18:39.989Z,99.99
2019-03-02T04:19:39.932Z,99.99
2019-03-02T04:20:39.888Z,99.99
2019-03-02T04:21:39.839Z,99.99
2019-03-02T04:22:44.175Z,99.99
2019-03-02T04:23:39.738Z,99.99
2019-03-02T04:24:41.023Z,99.99
2019-03-02T04:25:39.645Z,99.99
2019-03-02T04:26:39.594Z,99.99
2019-03-02T04:27:39.544Z,99.99
2019-03-02T04:28:39.496Z,99.99
2019-03-02T04:29:48.863Z,99.99
2019-03-02T04:30:39.400Z,99.99
2019-03-02T04:31:39.354Z,99.99
2019-03-02T04:32:39.308Z,99.99
2019-03-02T04:33:43.140Z,99.99
2019-03-02T04:34:39.211Z,99.99
2019-03-02T04:35:39.164Z,99.99
2019-03-02T04:36:39.115Z,99.99
2019-03-02T04:37:39.067Z,99.99
2019-03-02T04:38:39.020Z,99.99
2019-03-02T04:39:38.974Z,99.99
2019-03-02T04:40:38.935Z,99.99
2019-03-02T04:41:39.524Z,99.99
2019-03-02T04:42:38.840Z,99.99
2019-03-02T04:43:38.773Z,99.99
2019-03-02T04:44:38.723Z,99.99
2019-03-02T04:45:39.688Z,99.99
2019-03-02T04:46:38.626Z,99.99
2019-03-02T04:47:38.578Z,99.99
2019-03-02T04:48:39.358Z,99.99
2019-03-02T04:49:38.485Z,99.99
2019-03-02T04:50:38.436Z,99.99
2019-03-02T04:51:38.732Z,99.99
2019-03-02T04:52:38.339Z,99.99
2019-03-02T04:53:38.289Z,99.99
2019-03-02T04:54:38.617Z,99.99
2019-03-02T04:55:38.196Z,99.99
2019-03-02T04:56:38.144Z,99.99
2019-03-02T04:57:38.096Z,99.99
2019-03-02T04:58:38.048Z,99.99
2019-03-02T04:59:37.998Z,99.99
2019-03-02T05:00:37.952Z,99.99
2019-03-02T05:01:38.865Z,99.99
2019-03-02T05:02:37.897Z,99.99
2019-03-02T05:03:37.803Z,99.99
2019-03-02T05:04:37.758Z,99.99
2019-03-02T05:05:40.605Z,99.99
2019-03-02T05:06:37.661Z,99.99
2019-03-02T05:07:37.614Z,99.99
2019-03-02T05:08:41.064Z,99.99
2019-03-02T05:09:37.518Z,99.99
2019-03-02T05:10:37.471Z,99.99
2019-03-02T05:11:39.335Z,99.99
2019-03-02T05:12:37.371Z,99.99
2019-03-02T05:13:37.326Z,99.99
2019-03-02T05:14:40.173Z,99.99
2019-03-02T05:15:37.227Z,99.99
2019-03-02T05:16:37.179Z,99.99
2019-03-02T05:17:39.684Z,99.99
2019-03-02T05:18:37.079Z,99.99
2019-03-02T05:19:37.031Z,99.99
2019-03-02T05:20:37.763Z,99.99
2019-03-02T05:21:39.790Z,99.99
2019-03-02T05:22:36.891Z,99.99
2019-03-02T05:23:36.840Z,99.99
2019-03-02T05:24:36.795Z,99.99
2019-03-02T05:25:36.742Z,99.99
2019-03-02T05:26:36.705Z,99.99
2019-03-02T05:27:36.651Z,99.99
2019-03-02T05:28:39.678Z,99.99
2019-03-02T05:29:36.550Z,99.99
2019-03-02T05:30:36.504Z,99.99
2019-03-02T05:31:37.567Z,99.99
2019-03-02T05:32:36.410Z,99.99
2019-03-02T05:33:36.356Z,99.99
2019-03-02T05:34:36.698Z,99.99
2019-03-02T05:35:36.263Z,99.99
2019-03-02T05:36:36.223Z,99.99
2019-03-02T05:37:39.319Z,99.99
2019-03-02T05:38:36.118Z,99.99
2019-03-02T05:39:36.065Z,99.99
2019-03-02T05:40:36.023Z,99.99
2019-03-02T05:41:39.253Z,99.99
2019-03-02T05:42:35.922Z,99.99
2019-03-02T05:43:35.871Z,99.99
2019-03-02T05:44:35.824Z,99.99
2019-03-02T05:45:35.779Z,99.99
2019-03-02T05:46:35.728Z,99.99
2019-03-02T05:47:35.680Z,99.99
2019-03-02T05:48:39.009Z,99.99
2019-03-02T05:49:35.582Z,99.99
2019-03-02T05:50:35.608Z,99.99
2019-03-02T05:51:38.857Z,99.99
2019-03-02T05:52:35.436Z,99.99
2019-03-02T05:53:35.392Z,99.99
2019-03-02T05:54:38.557Z,99.99
2019-03-02T05:55:35.296Z,99.99
2019-03-02T05:56:35.245Z,99.99
2019-03-02T05:57:36.875Z,99.99
2019-03-02T05:58:35.155Z,99.99
2019-03-02T05:59:35.100Z,99.99
2019-03-02T06:00:37.789Z,99.99
2019-03-02T06:01:36.673Z,99.99
2019-03-02T06:02:34.955Z,99.99
2019-03-02T06:03:34.915Z,99.99
2019-03-02T06:04:34.858Z,99.99
2019-03-02T06:05:34.810Z,99.99
2019-03-02T06:06:34.762Z,99.99
2019-03-02T06:07:34.713Z,99.99
2019-03-02T06:08:35.635Z,99.99
2019-03-02T06:09:34.617Z,99.99
2019-03-02T06:10:34.571Z,99.99
2019-03-02T06:11:35.232Z,99.99
2019-03-02T06:12:34.472Z,99.99
2019-03-02T06:13:34.431Z,99.99
2019-03-02T06:14:34.376Z,99.99
2019-03-02T06:15:34.326Z,99.99
2019-03-02T06:16:34.279Z,99.99
2019-03-02T06:17:34.234Z,99.99
2019-03-02T06:18:34.183Z,99.99
2019-03-02T06:19:34.134Z,99.99
2019-03-02T06:20:35.584Z,99.99
2019-03-02T06:21:34.041Z,99.99
2019-03-02T06:22:33.987Z,99.99
2019-03-02T06:23:33.943Z,99.99
2019-03-02T06:24:33.895Z,99.99
2019-03-02T06:25:33.858Z,99.99
2019-03-02T06:26:35.400Z,99.99
2019-03-02T06:27:33.747Z,99.99
2019-03-02T06:28:34.886Z,99.99
2019-03-02T06:29:33.660Z,99.99
2019-03-02T06:31:33.561Z,99.99
2019-03-02T06:32:33.627Z,99.99
2019-03-02T06:33:33.463Z,99.99
2019-03-02T06:34:33.412Z,99.99
2019-03-02T06:35:33.992Z,99.99
2019-03-02T06:36:33.318Z,99.99
2019-03-02T06:37:33.269Z,99.99
2019-03-02T06:38:33.221Z,99.99
2019-03-02T06:39:33.168Z,99.99
2019-03-02T06:40:33.124Z,99.99
2019-03-02T06:41:33.374Z,99.99
2019-03-02T06:42:33.024Z,99.99
2019-03-02T06:43:32.974Z,99.99
2019-03-02T06:44:34.163Z,99.99
2019-03-02T06:45:32.877Z,99.99
2019-03-02T06:46:32.833Z,99.99
2019-03-02T06:47:33.386Z,99.99
2019-03-02T06:48:32.732Z,99.99
2019-03-02T06:49:32.685Z,99.99
2019-03-02T06:50:35.702Z,99.99
2019-03-02T06:51:32.591Z,99.99
2019-03-02T06:52:32.546Z,99.99
2019-03-02T06:53:34.040Z,99.99
2019-03-02T06:54:32.446Z,99.99
2019-03-02T06:55:32.398Z,99.99
2019-03-02T06:56:32.591Z,99.99
2019-03-02T06:57:32.303Z,99.99
2019-03-02T06:58:32.248Z,99.99
2019-03-02T06:59:32.204Z,99.99
2019-03-02T07:00:32.152Z,99.99
2019-03-02T07:01:32.104Z,99.99
2019-03-02T07:02:35.160Z,99.99
2019-03-02T07:03:32.008Z,99.99
2019-03-02T07:04:31.962Z,99.99
2019-03-02T07:05:34.005Z,99.99
2019-03-02T07:06:31.860Z,99.99
2019-03-02T07:07:31.817Z,99.99
2019-03-02T07:08:32.818Z,99.99
2019-03-02T07:09:31.721Z,99.99
2019-03-02T07:10:33.078Z,99.99
2019-03-02T07:11:33.642Z,99.99
2019-03-02T07:12:31.575Z,99.99
2019-03-02T07:13:31.529Z,99.99
2019-03-02T07:14:32.315Z,99.99
2019-03-02T07:15:31.440Z,99.99
2019-03-02T07:16:31.380Z,99.99
2019-03-02T07:17:31.722Z,99.99
2019-03-02T07:18:31.282Z,99.99
2019-03-02T07:19:32.853Z,99.99
2019-03-02T07:20:31.188Z,99.99
2019-03-02T07:21:31.143Z,99.99
2019-03-02T07:22:31.091Z,99.99
2019-03-02T07:23:31.040Z,99.99
2019-03-02T07:24:30.994Z,99.99
2019-03-02T07:25:30.948Z,99.99
2019-03-02T07:26:30.899Z,99.99
2019-03-02T07:27:30.848Z,99.99
2019-03-02T07:28:30.804Z,99.99
2019-03-02T07:29:32.014Z,99.99
2019-03-02T07:30:30.705Z,99.99
2019-03-02T07:31:30.666Z,99.99
2019-03-02T07:32:30.607Z,99.99
2019-03-02T07:33:30.559Z,99.99
2019-03-02T07:34:30.515Z,99.99
2019-03-02T07:35:30.692Z,99.99
2019-03-02T07:36:33.981Z,99.99
2019-03-02T07:37:30.366Z,99.99
2019-03-02T07:38:30.317Z,99.99
2019-03-02T07:39:32.673Z,99.99
2019-03-02T07:40:30.227Z,99.99
2019-03-02T07:41:30.174Z,99.99
2019-03-02T07:42:33.540Z,99.99
2019-03-02T07:43:30.085Z,99.99
2019-03-02T07:44:30.030Z,99.99
2019-03-02T07:45:31.377Z,99.99
2019-03-02T07:46:29.932Z,99.99
2019-03-02T07:47:29.885Z,99.99
2019-03-02T07:48:33.180Z,99.99
2019-03-02T07:49:29.798Z,99.99
2019-03-02T07:50:29.871Z,99.99
2019-03-02T07:51:29.692Z,99.99
2019-03-02T07:52:29.644Z,99.99
2019-03-02T07:53:30.346Z,99.99
2019-03-02T07:54:29.549Z,99.99
2019-03-02T07:55:29.501Z,99.99
2019-03-02T07:56:29.605Z,99.99
2019-03-02T07:57:29.409Z,99.99
2019-03-02T07:58:29.360Z,99.99
2019-03-02T07:59:29.645Z,99.99
2019-03-02T08:00:29.262Z,99.99
2019-03-02T08:01:29.212Z,99.99
2019-03-02T08:02:29.627Z,99.99
2019-03-02T08:03:29.114Z,99.99
2019-03-02T08:04:29.069Z,99.99
2019-03-02T08:05:29.021Z,99.99
2019-03-02T08:06:28.971Z,99.99
2019-03-02T08:07:28.929Z,99.99
2019-03-02T08:08:28.875Z,99.99
2019-03-02T08:09:28.834Z,99.99
2019-03-02T08:10:28.783Z,99.99
2019-03-02T08:11:28.733Z,99.99
2019-03-02T08:12:28.685Z,99.99
2019-03-02T08:13:28.641Z,99.99
2019-03-02T08:14:28.591Z,99.99
2019-03-02T08:15:28.541Z,99.99
2019-03-02T08:16:28.495Z,99.99
2019-03-02T08:17:28.445Z,99.99
2019-03-02T08:18:29.306Z,99.99
2019-03-02T08:19:28.352Z,99.99
2019-03-02T08:20:28.300Z,99.99
2019-03-02T08:21:28.252Z,99.99
2019-03-02T08:22:28.228Z,99.99
2019-03-02T08:23:28.160Z,99.99
2019-03-02T08:24:28.109Z,99.99
2019-03-02T08:25:28.063Z,99.99
2019-03-02T08:26:28.014Z,99.99
2019-03-02T08:27:30.820Z,99.99
2019-03-02T08:28:27.921Z,99.99
2019-03-02T08:29:27.869Z,99.99
2019-03-02T08:30:29.929Z,99.99
2019-03-02T08:31:27.776Z,99.99
2019-03-02T08:32:27.724Z,99.99
2019-03-02T08:33:30.693Z,99.99
2019-03-02T08:34:27.628Z,99.99
2019-03-02T08:35:27.583Z,99.99
2019-03-02T08:36:27.532Z,99.99
2019-03-02T08:37:29.913Z,99.99
2019-03-02T08:38:27.445Z,99.99
2019-03-02T08:39:27.398Z,99.99
2019-03-02T08:40:27.344Z,99.99
2019-03-02T08:41:27.302Z,99.99
2019-03-02T08:42:27.250Z,99.99
2019-03-02T08:43:27.306Z,99.99
2019-03-02T08:44:27.150Z,99.99
2019-03-02T08:45:27.634Z,99.99
2019-03-02T08:46:27.056Z,99.99
2019-03-02T08:47:27.034Z,99.99
2019-03-02T08:48:26.956Z,99.99
2019-03-02T08:49:26.912Z,99.99
2019-03-02T08:50:26.864Z,99.99
2019-03-02T08:51:26.816Z,99.99
2019-03-02T08:52:26.770Z,99.99
2019-03-02T08:53:26.718Z,99.99
2019-03-02T08:54:26.670Z,99.99
2019-03-02T08:55:29.817Z,99.99
2019-03-02T08:56:26.577Z,99.99
2019-03-02T08:57:27.284Z,99.99
2019-03-02T08:58:26.765Z,99.99
2019-03-02T08:59:26.430Z,99.99
2019-03-02T09:00:26.385Z,99.99
2019-03-02T09:01:26.334Z,99.99
2019-03-02T09:02:26.289Z,99.99
2019-03-02T09:03:26.240Z,99.99
2019-03-02T09:04:26.189Z,99.99
2019-03-02T09:05:42.873Z,99.99
2019-03-02T09:06:26.096Z,99.99
2019-03-02T09:07:26.080Z,99.99
2019-03-02T09:08:26.001Z,99.99
2019-03-02T09:09:25.955Z,99.99
2019-03-02T09:10:25.906Z,99.99
2019-03-02T09:11:25.854Z,99.99
2019-03-02T09:12:25.813Z,99.99
2019-03-02T09:13:25.760Z,99.99
2019-03-02T09:14:25.714Z,99.99
2019-03-02T09:15:28.912Z,99.99
2019-03-02T09:16:25.616Z,99.99
2019-03-02T09:17:25.572Z,99.99
2019-03-02T09:18:30.737Z,99.99
2019-03-02T09:19:25.471Z,99.99
2019-03-02T09:20:25.432Z,99.99
2019-03-02T09:21:25.425Z,99.99
2019-03-02T09:22:25.338Z,99.99
2019-03-02T09:23:25.287Z,99.99
2019-03-02T09:24:25.238Z,99.99
2019-03-02T09:25:27.884Z,99.99
2019-03-02T09:26:25.143Z,99.99
2019-03-02T09:27:25.089Z,99.99
2019-03-02T09:28:25.042Z,99.99
2019-03-02T09:29:24.995Z,99.99
2019-03-02T09:30:24.944Z,99.99
2019-03-02T09:31:26.432Z,99.99
2019-03-02T09:32:24.849Z,99.99
2019-03-02T09:33:28.456Z,99.99
2019-03-02T09:34:24.757Z,99.99
2019-03-02T09:35:24.707Z,99.99
2019-03-02T09:36:27.737Z,99.99
2019-03-02T09:37:24.612Z,99.99
2019-03-02T09:38:24.562Z,99.99
2019-03-02T09:39:24.907Z,99.99
2019-03-02T09:40:25.148Z,99.99
2019-03-02T09:41:25.451Z,99.99
2019-03-02T09:42:24.372Z,99.99
2019-03-02T09:43:24.328Z,99.99
2019-03-02T09:44:24.567Z,99.99
2019-03-02T09:45:24.229Z,99.99
2019-03-02T09:46:24.813Z,99.99
2019-03-02T09:47:24.421Z,99.99
2019-03-02T09:48:24.440Z,99.99
2019-03-02T09:49:24.041Z,99.99
2019-03-02T09:50:24.000Z,99.99
2019-03-02T09:51:23.940Z,99.99
2019-03-02T09:52:24.259Z,99.99
2019-03-02T09:53:23.948Z,99.99
2019-03-02T09:54:23.797Z,99.99
2019-03-02T09:55:23.750Z,99.99
2019-03-02T09:56:23.703Z,99.99
2019-03-02T09:57:23.663Z,99.99
2019-03-02T09:58:24.279Z,99.99
2019-03-02T09:59:23.561Z,99.99
2019-03-02T10:00:25.586Z,99.99
2019-03-02T10:01:23.464Z,99.99
2019-03-02T10:02:23.415Z,99.99
2019-03-02T10:03:26.806Z,99.99
2019-03-02T10:04:23.320Z,99.99
2019-03-02T10:05:23.274Z,99.99
2019-03-02T10:06:25.347Z,99.99
2019-03-02T10:07:25.133Z,99.99
2019-03-02T10:08:23.207Z,99.99
2019-03-02T10:09:24.959Z,99.99
2019-03-02T10:10:24.949Z,99.99
2019-03-02T10:11:24.155Z,99.99
2019-03-02T10:12:22.938Z,99.99
2019-03-02T10:13:22.893Z,99.99
2019-03-02T10:14:24.900Z,99.99
2019-03-02T10:15:22.796Z,99.99
2019-03-02T10:16:22.749Z,99.99
2019-03-02T10:17:22.701Z,99.99
2019-03-02T10:18:22.655Z,99.99
2019-03-02T10:19:25.072Z,99.99
2019-03-02T10:20:22.556Z,99.99
2019-03-02T10:21:22.512Z,99.99
2019-03-02T10:22:23.333Z,99.99
2019-03-02T10:23:22.418Z,99.99
2019-03-02T10:24:22.398Z,99.99
2019-03-02T10:25:25.883Z,99.99
2019-03-02T10:26:22.276Z,99.99
2019-03-02T10:27:22.492Z,99.99
2019-03-02T10:28:22.182Z,99.99
2019-03-02T10:29:22.140Z,99.99
2019-03-02T10:30:25.759Z,99.99
2019-03-02T10:31:22.039Z,99.99
2019-03-02T10:32:21.992Z,99.99
2019-03-02T10:33:21.944Z,99.99
2019-03-02T10:34:21.908Z,99.99
2019-03-02T10:35:21.850Z,99.99
2019-03-02T10:36:21.806Z,99.99
2019-03-02T10:37:21.758Z,99.99
2019-03-02T10:38:24.210Z,99.99
2019-03-02T10:39:21.668Z,99.99
2019-03-02T10:40:23.161Z,99.99
2019-03-02T10:41:21.650Z,99.99
2019-03-02T10:42:21.521Z,99.99
2019-03-02T10:43:21.479Z,99.99
2019-03-02T10:44:22.229Z,99.99
2019-03-02T10:45:21.387Z,99.99
2019-03-02T10:46:21.340Z,99.99
2019-03-02T10:47:21.322Z,99.99
2019-03-02T10:48:21.325Z,99.99
2019-03-02T10:49:21.217Z,99.99
2019-03-02T10:50:23.309Z,99.99
2019-03-02T10:51:21.101Z,99.99
2019-03-02T10:52:21.067Z,99.99
2019-03-02T10:53:24.241Z,98.94
2019-03-02T10:54:20.961Z,97.13
2019-03-02T10:55:20.930Z,97.80
2019-03-02T10:56:24.651Z,97.89
2019-03-02T10:57:20.826Z,97.41
2019-03-02T10:58:20.778Z,96.56
2019-03-02T10:59:20.736Z,95.70
2019-03-02T11:00:20.757Z,95.70
2019-03-02T11:01:20.701Z,95.22
2019-03-02T11:02:21.049Z,96.08
2019-03-02T11:03:20.552Z,96.22
2019-03-02T11:04:20.498Z,96.22
2019-03-02T11:05:21.070Z,96.22
2019-03-02T11:06:20.407Z,94.41
2019-03-02T11:07:20.362Z,94.79
2019-03-02T11:08:21.794Z,94.32
2019-03-02T11:09:22.556Z,94.12
2019-03-02T11:10:20.223Z,93.55
2019-03-02T11:11:20.173Z,93.17
2019-03-02T11:12:20.130Z,92.41
2019-03-02T11:13:20.699Z,92.79
2019-03-02T11:14:20.038Z,93.65
2019-03-02T11:15:20.000Z,93.74
2019-03-02T11:16:19.946Z,92.69
2019-03-02T11:17:23.143Z,91.27
2019-03-02T11:18:19.851Z,91.17
2019-03-02T11:19:19.803Z,90.50
2019-03-02T11:20:20.736Z,90.69
2019-03-02T11:21:19.713Z,91.27
2019-03-02T11:22:19.884Z,90.79
2019-03-02T11:23:22.158Z,90.41
2019-03-02T11:24:19.574Z,91.46
2019-03-02T11:25:19.583Z,91.07
2019-03-02T11:26:19.486Z,91.17
2019-03-02T11:27:19.437Z,91.27
2019-03-02T11:28:19.660Z,91.83
2019-03-02T11:29:21.182Z,91.07
2019-03-02T11:30:19.302Z,91.46
2019-03-02T11:31:19.255Z,90.88
2019-03-02T11:32:20.318Z,89.83
2019-03-02T11:33:19.158Z,89.64
2019-03-02T11:34:19.115Z,88.98
2019-03-02T11:35:19.535Z,88.45
2019-03-02T11:36:19.022Z,87.78
2019-03-02T11:37:22.002Z,88.26
2019-03-02T11:38:18.930Z,88.26
2019-03-02T11:39:18.886Z,87.59
2019-03-02T11:40:18.837Z,87.30
2019-03-02T11:41:20.939Z,88.07
2019-03-02T11:42:18.745Z,88.40
2019-03-02T11:43:18.699Z,88.49
2019-03-02T11:44:18.652Z,87.73
2019-03-02T11:45:18.608Z,86.87
2019-03-02T11:46:18.565Z,85.91
2019-03-02T11:47:18.536Z,83.81
2019-03-02T11:48:18.472Z,82.48
2019-03-02T11:49:18.425Z,82.67
2019-03-02T11:50:18.378Z,82.38
2019-03-02T11:51:18.339Z,82.29
2019-03-02T11:52:18.288Z,83.05
2019-03-02T11:53:18.245Z,83.62
2019-03-02T11:54:18.200Z,83.14
2019-03-02T11:55:18.151Z,82.48
2019-03-02T11:56:26.618Z,83.14
2019-03-02T11:57:21.126Z,82.76
2019-03-02T11:58:18.016Z,82.29
2019-03-02T11:59:17.982Z,81.90
2019-03-02T12:00:21.258Z,81.47
2019-03-02T12:01:17.881Z,81.37
2019-03-02T12:02:19.911Z,80.47
2019-03-02T12:03:17.787Z,80.90
2019-03-02T12:04:17.743Z,80.19
2019-03-02T12:05:17.702Z,79.85
2019-03-02T12:06:17.656Z,80.22
2019-03-02T12:07:17.609Z,79.46
2019-03-02T12:08:18.034Z,79.46
2019-03-02T12:09:17.512Z,79.94
2019-03-02T12:10:17.469Z,80.28
2019-03-02T12:11:17.429Z,80.32
2019-03-02T12:12:18.289Z,80.13
2019-03-02T12:13:17.332Z,81.04
2019-03-02T12:14:17.286Z,80.51
2019-03-02T12:15:17.239Z,79.85
2019-03-02T12:16:17.198Z,80.22
2019-03-02T12:17:17.158Z,81.09
2019-03-02T12:18:19.518Z,80.61
2019-03-02T12:19:17.059Z,80.80
2019-03-02T12:20:17.017Z,80.04
2019-03-02T12:21:17.950Z,79.56
2019-03-02T12:22:16.926Z,80.32
2019-03-02T12:23:16.878Z,79.69
2019-03-02T12:24:19.128Z,79.02
2019-03-02T12:25:16.787Z,79.36
2019-03-02T12:26:16.742Z,79.36
2019-03-02T12:27:18.853Z,78.74
2019-03-02T12:28:16.651Z,78.26
2019-03-02T12:29:16.609Z,77.30
2019-03-02T12:30:16.561Z,76.20
2019-03-02T12:31:16.519Z,74.09
2019-03-02T12:32:16.481Z,74.76
2019-03-02T12:33:17.008Z,73.61
2019-03-02T12:34:16.378Z,73.55
2019-03-02T12:35:16.334Z,73.08
2019-03-02T12:36:17.265Z,71.93
2019-03-02T12:37:16.246Z,70.91
2019-03-02T12:38:16.204Z,69.48
2019-03-02T12:39:16.168Z,69.67
2019-03-02T12:40:16.115Z,69.57
2019-03-02T12:41:16.714Z,69.86
2019-03-02T12:42:16.020Z,70.34
2019-03-02T12:43:15.978Z,69.99
2019-03-02T12:44:17.368Z,68.94
2019-03-02T12:45:15.886Z,68.94
2019-03-02T12:46:16.946Z,67.91
2019-03-02T12:47:15.800Z,67.44
2019-03-02T12:48:15.750Z,68.01
2019-03-02T12:49:15.712Z,67.63
2019-03-02T12:50:18.992Z,68.46
2019-03-02T12:51:15.623Z,69.00
2019-03-02T12:52:15.942Z,69.86
2019-03-02T12:53:16.217Z,69.03